Time;durP1;ratioP1;P1;durP2;ratioP2;P2;SDS_P1;SDS_P2;PMS_P1;PMS_P2;Temp;Humidity;BMP_temperature;BMP_pressure;BME280_temperature;BME280_humidity;BME280_pressure;Samples;Min_cycle;Max_cycle;Signal;HPM_P1;HPM_P2
2023/08/14 00:00:01;;;;;;;10.27;2.60;;;;;;;;;;5047823;28;20059;-74
2023/08/14 00:02:26;;;;;;;10.90;2.83;;;;;;;;;;5047774;28;20016;-74
2023/08/14 00:04:51;;;;;;;11.07;3.03;;;;;;;;;;5048077;28;20259;-74
2023/08/14 00:07:16;;;;;;;9.97;2.67;;;;;;;;;;5049555;28;20279;-74
2023/08/14 00:09:42;;;;;;;13.80;2.78;;;;;;;;;;5048015;28;20796;-73
2023/08/14 00:12:07;;;;;;;9.90;2.58;;;;;;;;;;5046069;28;20449;-74
2023/08/14 00:14:32;;;;;;;22.13;4.17;;;;;;;;;;5048508;28;20044;-74
2023/08/14 00:16:57;;;;;;;9.48;2.35;;;;;;;;;;5049081;28;20268;-74
2023/08/14 00:19:22;;;;;;;7.38;2.15;;;;;;;;;;5045741;28;20016;-73
2023/08/14 00:21:48;;;;;;;11.07;2.72;;;;;;;;;;5047816;28;20070;-74
2023/08/14 00:24:13;;;;;;;8.10;2.77;;;;;;;;;;5051944;28;20025;-73
2023/08/14 00:26:38;;;;;;;12.90;2.93;;;;;;;;;;5051888;28;20013;-74
2023/08/14 00:29:03;;;;;;;12.30;2.80;;;;;;;;;;5052619;28;20636;-74
2023/08/14 00:31:28;;;;;;;12.90;2.72;;;;;;;;;;5052895;28;20259;-74
2023/08/14 00:33:54;;;;;;;14.67;2.53;;;;;;;;;;5050515;28;20501;-73
2023/08/14 00:36:19;;;;;;;7.15;2.58;;;;;;;;;;5052787;28;20021;-74
2023/08/14 00:38:44;;;;;;;7.28;2.90;;;;;;;;;;5052437;28;20028;-73
2023/08/14 00:41:09;;;;;;;8.50;2.58;;;;;;;;;;5051189;28;20025;-73
2023/08/14 00:43:34;;;;;;;8.47;3.10;;;;;;;;;;5051862;28;20029;-73
2023/08/14 00:46:00;;;;;;;14.80;4.30;;;;;;;;;;5052638;28;20313;-74
2023/08/14 00:48:25;;;;;;;9.73;2.72;;;;;;;;;;5050505;28;20259;-73
2023/08/14 00:50:51;;;;;;;10.52;3.72;;;;;;;;;;5050747;28;21714;-73
2023/08/14 00:53:17;;;;;;;4.93;2.75;;;;;;;;;;5052139;28;20532;-74
2023/08/14 00:55:42;;;;;;;6.38;2.75;;;;;;;;;;5051437;28;20021;-74
2023/08/14 00:58:07;;;;;;;7.05;3.05;;;;;;;;;;5051859;28;20021;-73
2023/08/14 01:00:34;;;;;;;11.02;2.80;;;;;;;;;;5052161;28;20055;-73
2023/08/14 01:03:01;;;;;;;12.27;3.55;;;;;;;;;;5049489;28;20067;-73
2023/08/14 01:05:26;;;;;;;10.10;2.88;;;;;;;;;;5052058;28;20021;-73
2023/08/14 01:07:51;;;;;;;11.73;2.73;;;;;;;;;;5050631;28;20017;-73
2023/08/14 01:10:16;;;;;;;13.47;2.70;;;;;;;;;;5050082;28;20763;-73
2023/08/14 01:13:01;;;;;;;12.52;3.00;;;;;;;;;;5051793;28;20251;-73
2023/08/14 01:15:30;;;;;;;9.25;2.63;;;;;;;;;;5050613;28;20170;-74
2023/08/14 01:17:57;;;;;;;7.70;2.75;;;;;;;;;;5046477;28;20123;-74
2023/08/14 01:20:24;;;;;;;5.30;2.38;;;;;;;;;;5048699;28;20017;-74
2023/08/14 01:23:04;;;;;;;6.88;2.30;;;;;;;;;;5051494;28;20036;-73
2023/08/14 01:25:39;;;;;;;10.23;2.83;;;;;;;;;;5050818;28;20096;-73
2023/08/14 01:28:05;;;;;;;5.20;2.10;;;;;;;;;;5045283;28;20486;-73
2023/08/14 01:30:31;;;;;;;13.60;2.50;;;;;;;;;;5051397;28;20048;-73
2023/08/14 01:32:56;;;;;;;16.38;2.45;;;;;;;;;;5051659;28;20021;-73
2023/08/14 01:35:23;;;;;;;9.63;3.07;;;;;;;;;;5050647;28;20100;-74
2023/08/14 01:37:58;;;;;;;9.05;2.78;;;;;;;;;;5050237;28;20276;-73
2023/08/14 01:40:59;;;;;;;9.85;2.95;;;;;;;;;;5049307;28;20044;-73
2023/08/14 01:43:26;;;;;;;12.27;2.65;;;;;;;;;;4984907;28;20109;-73
2023/08/14 01:45:52;;;;;;;9.35;3.10;;;;;;;;;;5034960;28;20486;-74
2023/08/14 01:48:20;;;;;;;7.28;2.55;;;;;;;;;;5050382;28;20017;-73
2023/08/14 01:50:45;;;;;;;8.32;2.95;;;;;;;;;;5051328;28;20027;-73
2023/08/14 01:53:11;;;;;;;8.00;2.75;;;;;;;;;;5050403;28;20029;-73
2023/08/14 01:55:36;;;;;;;9.05;2.55;;;;;;;;;;5049218;28;20112;-73
2023/08/14 01:58:01;;;;;;;13.53;2.87;;;;;;;;;;5049770;28;20110;-73
2023/08/14 02:00:26;;;;;;;7.80;2.50;;;;;;;;;;5051438;28;20290;-73
2023/08/14 02:02:52;;;;;;;12.27;3.83;;;;;;;;;;5050079;28;20056;-73
2023/08/14 02:05:18;;;;;;;7.18;2.72;;;;;;;;;;5048554;28;20036;-73
2023/08/14 02:07:43;;;;;;;12.80;2.40;;;;;;;;;;5050424;28;20178;-73
2023/08/14 02:10:08;;;;;;;14.20;2.85;;;;;;;;;;5049088;28;20350;-73
2023/08/14 02:12:33;;;;;;;8.50;2.88;;;;;;;;;;5050766;28;20025;-73
2023/08/14 02:14:59;;;;;;;14.38;2.60;;;;;;;;;;5049693;28;20112;-73
2023/08/14 02:17:27;;;;;;;9.23;2.97;;;;;;;;;;5050366;28;20458;-73
2023/08/14 02:19:52;;;;;;;10.88;2.92;;;;;;;;;;5048919;28;20075;-73
2023/08/14 02:22:17;;;;;;;10.07;3.30;;;;;;;;;;5050336;28;20449;-73
2023/08/14 02:24:42;;;;;;;12.20;2.57;;;;;;;;;;5049133;28;20267;-73
2023/08/14 02:27:07;;;;;;;7.97;2.63;;;;;;;;;;5049422;28;20269;-73
2023/08/14 02:29:33;;;;;;;8.73;2.47;;;;;;;;;;5050232;28;20317;-74
2023/08/14 02:31:58;;;;;;;18.23;2.77;;;;;;;;;;5049348;28;20286;-73
2023/08/14 02:34:33;;;;;;;13.83;2.60;;;;;;;;;;5049914;28;20303;-73
2023/08/14 02:36:58;;;;;;;7.75;2.40;;;;;;;;;;5049032;28;20313;-73
2023/08/14 02:39:24;;;;;;;9.10;2.87;;;;;;;;;;5049226;28;20474;-73
2023/08/14 02:41:49;;;;;;;5.33;2.70;;;;;;;;;;5049558;28;20345;-73
2023/08/14 02:44:14;;;;;;;13.77;3.10;;;;;;;;;;5049555;28;20329;-73
2023/08/14 02:46:39;;;;;;;9.37;2.60;;;;;;;;;;5047429;28;20268;-73
2023/08/14 02:49:04;;;;;;;7.73;2.17;;;;;;;;;;5048845;28;20291;-74
2023/08/14 02:51:29;;;;;;;5.90;2.70;;;;;;;;;;5049208;28;20305;-73
2023/08/14 02:53:55;;;;;;;15.80;3.20;;;;;;;;;;5045871;28;20274;-73
2023/08/14 02:56:20;;;;;;;9.33;2.70;;;;;;;;;;5048932;28;20632;-73
2023/08/14 02:58:45;;;;;;;11.70;2.70;;;;;;;;;;5049913;28;20267;-74
2023/08/14 03:01:10;;;;;;;9.47;2.50;;;;;;;;;;5048452;28;20378;-73
2023/08/14 03:03:35;;;;;;;9.63;2.85;;;;;;;;;;5048965;28;20263;-73
2023/08/14 03:06:00;;;;;;;6.77;3.07;;;;;;;;;;5048128;28;20024;-73
2023/08/14 03:08:26;;;;;;;6.10;2.60;;;;;;;;;;5047255;28;20021;-73
2023/08/14 03:10:51;;;;;;;12.75;3.17;;;;;;;;;;5046493;28;20760;-73
2023/08/14 03:13:16;;;;;;;15.43;2.83;;;;;;;;;;5046083;28;20028;-73
2023/08/14 03:15:42;;;;;;;7.90;2.57;;;;;;;;;;5045764;28;20024;-73
2023/08/14 03:18:07;;;;;;;11.30;2.67;;;;;;;;;;5048871;28;20295;-73
2023/08/14 03:20:32;;;;;;;13.70;2.67;;;;;;;;;;5047871;28;20120;-73
2023/08/14 03:22:57;;;;;;;6.80;2.35;;;;;;;;;;5049537;28;20025;-73
2023/08/14 03:25:22;;;;;;;12.67;2.77;;;;;;;;;;5047992;28;20041;-73
2023/08/14 03:27:48;;;;;;;7.85;2.33;;;;;;;;;;5048464;28;20294;-73
2023/08/14 03:30:13;;;;;;;8.00;2.50;;;;;;;;;;5047794;28;20032;-73
2023/08/14 03:32:38;;;;;;;14.53;3.17;;;;;;;;;;5049788;28;20256;-73
2023/08/14 03:35:03;;;;;;;6.63;3.03;;;;;;;;;;5048931;28;20283;-73
2023/08/14 03:37:29;;;;;;;13.20;3.53;;;;;;;;;;5048111;28;20346;-74
2023/08/14 03:39:54;;;;;;;7.95;2.78;;;;;;;;;;5047221;28;20028;-73
2023/08/14 03:42:19;;;;;;;8.88;2.47;;;;;;;;;;5047970;28;20108;-73
2023/08/14 03:44:44;;;;;;;13.27;3.13;;;;;;;;;;5048463;28;20028;-73
2023/08/14 03:47:09;;;;;;;13.07;2.87;;;;;;;;;;5049595;28;20251;-73
2023/08/14 03:49:34;;;;;;;12.47;2.87;;;;;;;;;;5048240;28;20263;-73
2023/08/14 03:52:00;;;;;;;11.73;3.07;;;;;;;;;;5049335;28;20370;-73
2023/08/14 03:54:25;;;;;;;11.50;3.00;;;;;;;;;;5048168;28;20267;-73
2023/08/14 03:56:50;;;;;;;5.00;2.70;;;;;;;;;;5047911;28;20540;-73
2023/08/14 03:59:15;;;;;;;8.43;3.10;;;;;;;;;;5051385;28;20311;-74
2023/08/14 04:01:42;;;;;;;8.93;2.80;;;;;;;;;;5053476;28;20355;-73
2023/08/14 04:04:08;;;;;;;12.75;3.13;;;;;;;;;;5052090;28;20462;-73
2023/08/14 04:06:34;;;;;;;10.63;2.97;;;;;;;;;;5053109;28;20031;-73
2023/08/14 04:09:01;;;;;;;11.15;4.13;;;;;;;;;;5050285;28;20280;-73
2023/08/14 04:11:26;;;;;;;10.18;2.88;;;;;;;;;;5044961;28;20052;-73
2023/08/14 04:13:51;;;;;;;9.90;3.13;;;;;;;;;;5049657;28;20021;-73
2023/08/14 04:16:16;;;;;;;13.07;2.73;;;;;;;;;;5050813;28;20082;-73
2023/08/14 04:18:42;;;;;;;11.37;3.10;;;;;;;;;;5050507;28;20283;-73
2023/08/14 04:21:07;;;;;;;8.07;3.40;;;;;;;;;;5052762;28;20800;-73
2023/08/14 04:23:32;;;;;;;8.33;2.73;;;;;;;;;;5051868;28;20247;-73
2023/08/14 04:25:57;;;;;;;8.95;2.63;;;;;;;;;;5051793;28;20279;-74
2023/08/14 04:28:22;;;;;;;9.63;3.20;;;;;;;;;;5052540;28;20019;-73
2023/08/14 04:30:48;;;;;;;8.23;2.90;;;;;;;;;;5048840;28;20744;-73
2023/08/14 04:33:13;;;;;;;9.65;3.22;;;;;;;;;;5051994;28;20025;-73
2023/08/14 04:35:38;;;;;;;14.80;3.30;;;;;;;;;;5052716;28;20020;-73
2023/08/14 04:38:04;;;;;;;6.18;2.80;;;;;;;;;;5052526;28;20252;-73
2023/08/14 04:40:29;;;;;;;14.45;3.00;;;;;;;;;;5051259;28;20021;-73
2023/08/14 04:42:54;;;;;;;7.90;3.08;;;;;;;;;;5052586;28;20021;-73
2023/08/14 04:45:20;;;;;;;12.60;3.53;;;;;;;;;;5050795;28;20596;-74
2023/08/14 04:47:46;;;;;;;5.53;2.63;;;;;;;;;;5050486;28;20338;-73
2023/08/14 04:50:11;;;;;;;17.87;3.13;;;;;;;;;;5048401;28;20478;-74
2023/08/14 04:52:36;;;;;;;10.93;4.05;;;;;;;;;;5051361;28;20306;-73
2023/08/14 04:55:01;;;;;;;7.70;2.55;;;;;;;;;;5052352;28;20017;-74
2023/08/14 04:57:27;;;;;;;13.73;4.13;;;;;;;;;;5030624;28;20028;-73
2023/08/14 04:59:52;;;;;;;12.65;2.90;;;;;;;;;;5048892;28;20053;-73
2023/08/14 05:02:17;;;;;;;16.40;2.77;;;;;;;;;;5046764;28;20962;-73
2023/08/14 05:04:42;;;;;;;12.73;3.20;;;;;;;;;;5047494;28;20017;-73
2023/08/14 05:07:07;;;;;;;10.80;2.83;;;;;;;;;;5049922;28;20017;-73
2023/08/14 05:09:33;;;;;;;17.17;3.27;;;;;;;;;;5045790;28;20040;-73
2023/08/14 05:11:58;;;;;;;6.32;2.55;;;;;;;;;;5039321;28;20255;-73
2023/08/14 05:14:23;;;;;;;11.85;2.90;;;;;;;;;;5039416;28;20030;-73
2023/08/14 05:16:49;;;;;;;13.43;3.05;;;;;;;;;;5041766;28;20037;-73
2023/08/14 05:19:14;;;;;;;8.30;3.10;;;;;;;;;;5042662;28;20618;-73
2023/08/14 05:21:39;;;;;;;11.00;3.00;;;;;;;;;;5026941;28;20029;-73
2023/08/14 05:24:04;;;;;;;9.13;3.25;;;;;;;;;;5048247;28;20745;-73
2023/08/14 05:26:30;;;;;;;11.57;3.15;;;;;;;;;;5041308;28;20025;-73
2023/08/14 05:28:55;;;;;;;9.73;2.90;;;;;;;;;;5048185;28;20123;-73
2023/08/14 05:31:20;;;;;;;7.80;2.40;;;;;;;;;;5042908;28;20053;-73
2023/08/14 05:33:45;;;;;;;13.82;3.35;;;;;;;;;;5043000;28;20283;-73
2023/08/14 05:36:10;;;;;;;8.43;3.15;;;;;;;;;;5040887;28;20100;-73
2023/08/14 05:38:36;;;;;;;7.23;2.53;;;;;;;;;;5041391;28;20025;-73
2023/08/14 05:41:01;;;;;;;8.97;2.40;;;;;;;;;;5044417;28;20679;-73
2023/08/14 05:43:26;;;;;;;7.63;2.53;;;;;;;;;;5043089;28;21224;-73
2023/08/14 05:45:51;;;;;;;11.47;2.90;;;;;;;;;;5044253;28;20017;-73
2023/08/14 05:48:16;;;;;;;10.97;2.50;;;;;;;;;;5043189;28;20267;-74
2023/08/14 05:50:42;;;;;;;12.73;2.85;;;;;;;;;;5040848;28;20910;-74
2023/08/14 05:53:07;;;;;;;9.32;2.90;;;;;;;;;;5045466;28;20029;-74
2023/08/14 05:55:37;;;;;;;22.25;3.17;;;;;;;;;;5047692;28;20048;-74
2023/08/14 05:58:03;;;;;;;10.57;2.65;;;;;;;;;;5048483;28;20035;-74
2023/08/14 06:00:28;;;;;;;15.85;3.03;;;;;;;;;;5046978;28;20036;-74
2023/08/14 06:02:54;;;;;;;8.23;2.25;;;;;;;;;;5046996;28;20025;-74
2023/08/14 06:05:20;;;;;;;13.68;2.95;;;;;;;;;;5046018;28;20017;-74
2023/08/14 06:07:48;;;;;;;12.82;2.60;;;;;;;;;;5047531;28;20025;-74
2023/08/14 06:10:13;;;;;;;10.18;2.78;;;;;;;;;;5047882;28;20116;-74
2023/08/14 06:12:39;;;;;;;17.37;3.97;;;;;;;;;;5047364;28;20116;-74
2023/08/14 06:15:04;;;;;;;6.17;2.23;;;;;;;;;;5047454;28;20348;-74
2023/08/14 06:17:31;;;;;;;18.95;2.35;;;;;;;;;;5045859;28;20760;-74
2023/08/14 06:19:56;;;;;;;8.93;2.92;;;;;;;;;;5048576;28;20036;-74
2023/08/14 06:22:21;;;;;;;11.97;2.33;;;;;;;;;;5047123;28;20405;-74
2023/08/14 06:24:46;;;;;;;10.60;2.10;;;;;;;;;;5043246;28;20302;-74
2023/08/14 06:27:11;;;;;;;8.32;2.55;;;;;;;;;;5043292;28;20291;-74
2023/08/14 06:29:38;;;;;;;10.00;2.65;;;;;;;;;;5041247;28;20023;-74
2023/08/14 06:32:05;;;;;;;5.25;2.22;;;;;;;;;;5030597;28;20029;-74
2023/08/14 06:34:30;;;;;;;9.25;2.22;;;;;;;;;;5049671;28;20025;-74
2023/08/14 06:36:55;;;;;;;12.20;2.33;;;;;;;;;;5047145;28;20013;-74
2023/08/14 06:39:20;;;;;;;13.60;2.87;;;;;;;;;;5028215;28;20025;-74
2023/08/14 06:41:45;;;;;;;15.40;2.20;;;;;;;;;;5044897;28;20379;-74
2023/08/14 06:44:11;;;;;;;6.20;2.20;;;;;;;;;;5047977;28;20264;-74
2023/08/14 06:46:36;;;;;;;9.32;2.28;;;;;;;;;;5048868;28;20693;-74
2023/08/14 06:49:01;;;;;;;8.68;2.55;;;;;;;;;;5043045;28;20486;-74
2023/08/14 06:51:27;;;;;;;9.43;1.90;;;;;;;;;;5044874;28;20021;-74
2023/08/14 06:53:52;;;;;;;13.83;2.20;;;;;;;;;;5038466;28;20275;-74
2023/08/14 06:56:17;;;;;;;12.00;1.95;;;;;;;;;;5049068;28;20282;-74
2023/08/14 06:58:42;;;;;;;5.37;2.00;;;;;;;;;;5049756;28;20021;-74
2023/08/14 07:01:07;;;;;;;11.50;2.63;;;;;;;;;;5047803;28;20341;-74
2023/08/14 07:03:33;;;;;;;18.45;2.53;;;;;;;;;;5047767;28;20321;-74
2023/08/14 07:05:58;;;;;;;9.75;2.17;;;;;;;;;;5047204;28;20108;-74
2023/08/14 07:08:24;;;;;;;4.03;1.80;;;;;;;;;;5048673;28;20466;-74
2023/08/14 07:10:49;;;;;;;17.92;2.40;;;;;;;;;;5048999;28;20097;-74
2023/08/14 07:13:14;;;;;;;10.27;3.03;;;;;;;;;;5047531;28;20029;-74
2023/08/14 07:15:39;;;;;;;7.63;2.23;;;;;;;;;;5049347;28;20276;-74
2023/08/14 07:18:04;;;;;;;4.17;2.10;;;;;;;;;;5048038;28;20431;-74
2023/08/14 07:20:30;;;;;;;11.57;2.70;;;;;;;;;;5047207;28;20044;-74
2023/08/14 07:22:55;;;;;;;7.53;2.43;;;;;;;;;;5046365;28;20279;-74
2023/08/14 07:25:21;;;;;;;8.38;2.28;;;;;;;;;;5049138;28;20264;-74
2023/08/14 07:27:46;;;;;;;8.37;1.90;;;;;;;;;;5049356;28;20063;-75
2023/08/14 07:30:11;;;;;;;7.53;1.80;;;;;;;;;;5044458;28;20275;-75
2023/08/14 07:32:36;;;;;;;9.10;2.10;;;;;;;;;;5049261;28;20025;-75
2023/08/14 07:35:02;;;;;;;7.73;2.77;;;;;;;;;;5052662;28;20025;-75
2023/08/14 07:37:27;;;;;;;8.60;2.40;;;;;;;;;;5052663;28;20028;-74
2023/08/14 07:39:53;;;;;;;8.17;2.57;;;;;;;;;;5048676;28;20083;-75
2023/08/14 07:42:18;;;;;;;8.00;2.90;;;;;;;;;;5048189;28;20283;-75
2023/08/14 07:44:43;;;;;;;12.53;2.43;;;;;;;;;;5051284;28;20485;-74
2023/08/14 07:47:10;;;;;;;8.63;2.97;;;;;;;;;;5050954;28;20279;-74
2023/08/14 07:49:36;;;;;;;5.47;1.80;;;;;;;;;;5048433;28;20049;-74
2023/08/14 07:52:01;;;;;;;10.60;2.00;;;;;;;;;;5051396;28;20067;-74
2023/08/14 07:54:26;;;;;;;6.07;1.87;;;;;;;;;;5050053;28;20374;-74
2023/08/14 07:56:54;;;;;;;7.23;2.00;;;;;;;;;;5049661;28;20512;-74
2023/08/14 07:59:19;;;;;;;8.68;2.60;;;;;;;;;;5053325;28;20025;-74
2023/08/14 08:01:45;;;;;;;7.30;1.90;;;;;;;;;;5051710;28;20032;-74
2023/08/14 08:04:10;;;;;;;5.57;1.23;;;;;;;;;;5053484;28;20428;-74
2023/08/14 08:06:35;;;;;;;5.72;2.17;;;;;;;;;;5052382;28;21010;-74
2023/08/14 08:09:01;;;;;;;7.33;2.27;;;;;;;;;;5050203;28;20534;-74
2023/08/14 08:11:26;;;;;;;6.83;2.23;;;;;;;;;;5051386;28;20020;-75
2023/08/14 08:13:51;;;;;;;7.77;3.00;;;;;;;;;;5051518;28;20834;-75
2023/08/14 08:16:17;;;;;;;6.37;2.13;;;;;;;;;;5052386;28;20074;-75
2023/08/14 08:18:42;;;;;;;10.73;3.00;;;;;;;;;;5051959;28;20350;-74
2023/08/14 08:21:07;;;;;;;7.53;2.83;;;;;;;;;;5050199;28;20052;-74
2023/08/14 08:23:32;;;;;;;5.47;2.10;;;;;;;;;;5052950;28;20767;-74
2023/08/14 08:25:57;;;;;;;8.50;1.70;;;;;;;;;;5051187;28;20632;-74
2023/08/14 08:28:23;;;;;;;4.40;1.90;;;;;;;;;;5047149;28;20025;-74
2023/08/14 08:30:48;;;;;;;8.80;2.20;;;;;;;;;;5050579;28;20044;-74
2023/08/14 08:33:13;;;;;;;8.83;1.97;;;;;;;;;;5050801;28;20025;-74
2023/08/14 08:35:38;;;;;;;7.73;1.83;;;;;;;;;;5050013;28;20024;-74
2023/08/14 08:38:04;;;;;;;7.57;1.57;;;;;;;;;;5051168;28;20242;-74
2023/08/14 08:40:30;;;;;;;5.60;1.67;;;;;;;;;;5049650;28;20025;-74
2023/08/14 08:42:55;;;;;;;6.57;2.03;;;;;;;;;;5051229;28;20098;-74
2023/08/14 08:45:22;;;;;;;10.30;2.38;;;;;;;;;;5050248;28;20367;-74
2023/08/14 08:47:48;;;;;;;5.90;2.38;;;;;;;;;;5047780;28;20071;-74
2023/08/14 08:50:13;;;;;;;5.63;2.30;;;;;;;;;;5048313;28;20016;-75
2023/08/14 08:52:38;;;;;;;4.93;2.10;;;;;;;;;;5048750;28;20024;-75
2023/08/14 08:55:04;;;;;;;4.25;1.05;;;;;;;;;;5045739;28;20031;-75
2023/08/14 08:57:29;;;;;;;4.20;1.42;;;;;;;;;;5045486;28;20054;-74
2023/08/14 08:59:57;;;;;;;11.13;2.13;;;;;;;;;;5048069;28;20035;-74
2023/08/14 09:02:22;;;;;;;4.68;1.38;;;;;;;;;;5049444;28;20764;-74
2023/08/14 09:04:47;;;;;;;5.30;1.90;;;;;;;;;;5048548;28;20078;-74
2023/08/14 09:07:13;;;;;;;5.67;1.63;;;;;;;;;;5052153;28;20354;-74
2023/08/14 09:09:38;;;;;;;3.60;1.45;;;;;;;;;;5043868;28;20025;-74
2023/08/14 09:12:03;;;;;;;4.50;1.90;;;;;;;;;;5044816;28;20060;-74
2023/08/14 09:14:28;;;;;;;5.88;1.60;;;;;;;;;;5049601;28;20021;-74
2023/08/14 09:16:54;;;;;;;6.93;1.60;;;;;;;;;;5048463;28;20037;-73
2023/08/14 09:19:19;;;;;;;8.75;1.58;;;;;;;;;;5048758;28;20063;-74
2023/08/14 09:21:44;;;;;;;10.27;1.98;;;;;;;;;;5043207;28;20470;-74
2023/08/14 09:24:11;;;;;;;5.37;1.43;;;;;;;;;;5047778;28;20039;-73
2023/08/14 09:26:36;;;;;;;6.35;1.38;;;;;;;;;;5046225;28;20028;-74
2023/08/14 09:29:02;;;;;;;5.20;1.77;;;;;;;;;;5051198;28;20021;-74
2023/08/14 09:31:29;;;;;;;3.45;1.20;;;;;;;;;;5050752;28;20524;-74
2023/08/14 09:33:54;;;;;;;9.63;1.90;;;;;;;;;;5047105;28;20025;-74
2023/08/14 09:36:20;;;;;;;5.63;1.80;;;;;;;;;;5048774;28;20013;-74
2023/08/14 09:38:45;;;;;;;7.53;1.40;;;;;;;;;;5048021;28;20485;-74
2023/08/14 09:41:10;;;;;;;8.63;1.90;;;;;;;;;;5045443;28;20861;-74
2023/08/14 09:43:35;;;;;;;3.13;1.23;;;;;;;;;;5049601;28;20024;-74
2023/08/14 09:46:02;;;;;;;5.00;1.85;;;;;;;;;;5049587;28;20272;-74
2023/08/14 09:48:43;;;;;;;8.13;2.28;;;;;;;;;;5047512;28;20049;-74
2023/08/14 09:51:18;;;;;;;6.65;2.47;;;;;;;;;;5048383;28;20033;-74
2023/08/14 09:53:48;;;;;;;6.55;1.63;;;;;;;;;;5050765;28;20100;-74
2023/08/14 09:56:13;;;;;;;6.70;2.05;;;;;;;;;;5048361;28;20036;-74
2023/08/14 09:58:38;;;;;;;5.30;1.80;;;;;;;;;;5050297;28;20025;-74
2023/08/14 10:01:04;;;;;;;6.07;1.75;;;;;;;;;;5048570;28;20033;-74
2023/08/14 10:03:30;;;;;;;6.95;1.85;;;;;;;;;;5048946;28;20013;-74
2023/08/14 10:05:56;;;;;;;9.57;1.55;;;;;;;;;;5047605;28;20025;-74
2023/08/14 10:08:21;;;;;;;8.67;1.77;;;;;;;;;;5051715;28;20083;-75
2023/08/14 10:10:46;;;;;;;5.63;2.00;;;;;;;;;;5048327;28;20764;-74
2023/08/14 10:13:12;;;;;;;7.63;1.80;;;;;;;;;;5051369;28;20095;-74
2023/08/14 10:15:40;;;;;;;9.00;2.05;;;;;;;;;;5050177;28;20415;-74
2023/08/14 10:18:13;;;;;;;4.93;2.00;;;;;;;;;;5083840;28;20409;-73
2023/08/14 10:20:40;;;;;;;3.53;0.90;;;;;;;;;;5058913;28;20032;-72
2023/08/14 10:23:06;;;;;;;5.43;1.80;;;;;;;;;;5060525;28;20025;-73
2023/08/14 10:25:34;;;;;;;11.07;2.25;;;;;;;;;;5059070;28;20024;-73
2023/08/14 10:28:00;;;;;;;9.57;1.90;;;;;;;;;;5062455;28;20016;-73
2023/08/14 10:30:25;;;;;;;6.30;1.88;;;;;;;;;;5066594;28;20017;-72
2023/08/14 10:32:51;;;;;;;8.05;2.00;;;;;;;;;;5064165;28;20021;-73
2023/08/14 10:35:16;;;;;;;5.20;1.98;;;;;;;;;;5060795;28;20017;-73
2023/08/14 10:37:41;;;;;;;4.88;1.83;;;;;;;;;;5053882;28;20024;-73
2023/08/14 10:40:16;;;;;;;6.87;1.77;;;;;;;;;;5058974;28;20025;-72
2023/08/14 10:42:43;;;;;;;8.55;1.60;;;;;;;;;;5059575;28;20282;-73
2023/08/14 10:45:08;;;;;;;5.15;1.67;;;;;;;;;;5057480;28;20111;-72
2023/08/14 10:47:37;;;;;;;7.55;1.90;;;;;;;;;;5060373;28;20116;-72
2023/08/14 10:50:11;;;;;;;4.25;1.52;;;;;;;;;;5060457;28;20035;-73
2023/08/14 10:52:37;;;;;;;7.32;1.60;;;;;;;;;;5067104;28;20021;-72
2023/08/14 10:55:02;;;;;;;10.38;1.60;;;;;;;;;;5066149;28;20031;-73
2023/08/14 10:57:27;;;;;;;8.85;2.00;;;;;;;;;;5063051;28;20024;-72
2023/08/14 10:59:56;;;;;;;12.05;2.03;;;;;;;;;;5054683;28;20025;-73
2023/08/14 11:02:21;;;;;;;6.93;2.10;;;;;;;;;;5055837;28;21801;-73
2023/08/14 11:05:00;;;;;;;4.63;1.70;;;;;;;;;;5062428;28;20090;-73
2023/08/14 11:07:29;;;;;;;4.82;1.80;;;;;;;;;;5063239;28;20267;-73
2023/08/14 11:09:55;;;;;;;8.00;2.50;;;;;;;;;;5064359;28;20032;-73
2023/08/14 11:12:21;;;;;;;5.07;1.75;;;;;;;;;;5062182;28;20513;-73
2023/08/14 11:14:46;;;;;;;9.70;1.67;;;;;;;;;;5061520;28;20032;-73
2023/08/14 11:17:11;;;;;;;6.33;1.90;;;;;;;;;;5058179;28;20033;-73
2023/08/14 11:19:37;;;;;;;4.93;1.42;;;;;;;;;;5063648;28;20271;-73
2023/08/14 11:22:03;;;;;;;7.72;2.65;;;;;;;;;;5057392;28;20021;-73
2023/08/14 11:24:29;;;;;;;3.55;1.55;;;;;;;;;;5063369;28;20116;-73
2023/08/14 11:26:56;;;;;;;5.80;1.45;;;;;;;;;;5063993;28;20035;-72
2023/08/14 11:29:21;;;;;;;9.27;2.08;;;;;;;;;;5047434;28;20123;-73
2023/08/14 11:31:48;;;;;;;9.07;2.00;;;;;;;;;;5042129;28;20526;-73
2023/08/14 11:34:13;;;;;;;8.68;1.90;;;;;;;;;;5049419;28;20128;-73
2023/08/14 11:36:41;;;;;;;6.87;1.80;;;;;;;;;;5049465;28;20104;-73
2023/08/14 11:39:07;;;;;;;5.15;1.98;;;;;;;;;;5048776;28;20028;-73
2023/08/14 11:41:35;;;;;;;7.68;2.22;;;;;;;;;;5048288;28;20478;-73
2023/08/14 11:44:00;;;;;;;5.35;1.88;;;;;;;;;;5049597;28;20124;-73
2023/08/14 11:46:25;;;;;;;6.25;2.53;;;;;;;;;;5042834;28;20494;-73
2023/08/14 11:48:51;;;;;;;12.27;2.22;;;;;;;;;;5047340;28;20025;-73
2023/08/14 11:51:17;;;;;;;8.18;2.50;;;;;;;;;;5043565;28;20513;-72
2023/08/14 11:53:43;;;;;;;7.00;2.40;;;;;;;;;;5048880;28;20023;-73
2023/08/14 11:56:09;;;;;;;6.70;2.03;;;;;;;;;;5043737;28;20383;-73
2023/08/14 11:58:38;;;;;;;5.03;1.73;;;;;;;;;;5045272;28;20017;-73
2023/08/14 12:01:03;;;;;;;6.43;1.73;;;;;;;;;;5046395;28;20027;-73
2023/08/14 12:03:30;;;;;;;6.72;2.58;;;;;;;;;;5049429;28;20381;-73
2023/08/14 12:05:59;;;;;;;10.68;1.88;;;;;;;;;;5058948;28;20025;-73
2023/08/14 12:08:27;;;;;;;6.07;2.33;;;;;;;;;;5048276;28;20025;-73
2023/08/14 12:10:52;;;;;;;12.57;2.60;;;;;;;;;;5044813;28;20043;-73
2023/08/14 12:13:19;;;;;;;10.57;2.33;;;;;;;;;;5043765;28;20079;-72
2023/08/14 12:15:46;;;;;;;7.47;2.60;;;;;;;;;;5042176;28;20028;-72
2023/08/14 12:18:12;;;;;;;9.55;2.40;;;;;;;;;;5050128;28;20033;-72
2023/08/14 12:20:37;;;;;;;9.07;2.30;;;;;;;;;;5050716;28;20059;-73
2023/08/14 12:23:12;;;;;;;3.17;1.77;;;;;;;;;;5051798;28;20056;-72
2023/08/14 12:25:38;;;;;;;3.42;1.20;;;;;;;;;;5048462;28;20029;-72
2023/08/14 12:28:03;;;;;;;5.87;2.07;;;;;;;;;;5047065;28;20033;-72
2023/08/14 12:30:28;;;;;;;6.22;1.88;;;;;;;;;;5043117;28;20271;-72
2023/08/14 12:32:53;;;;;;;5.53;1.93;;;;;;;;;;5046019;28;20033;-72
2023/08/14 12:35:18;;;;;;;3.83;1.50;;;;;;;;;;5050624;28;20076;-72
2023/08/14 12:37:44;;;;;;;6.30;2.10;;;;;;;;;;5045789;28;20025;-72
2023/08/14 12:40:09;;;;;;;2.67;1.20;;;;;;;;;;5042787;28;20572;-72
2023/08/14 12:42:36;;;;;;;3.30;1.65;;;;;;;;;;5048053;28;20024;-72
2023/08/14 12:45:01;;;;;;;7.25;1.88;;;;;;;;;;5044708;28;20031;-72
2023/08/14 12:47:27;;;;;;;4.97;1.33;;;;;;;;;;5044490;28;20017;-72
2023/08/14 12:49:52;;;;;;;10.47;2.13;;;;;;;;;;5045418;28;20013;-73
2023/08/14 12:52:17;;;;;;;3.30;1.23;;;;;;;;;;5051334;28;20100;-72
2023/08/14 12:54:43;;;;;;;3.10;1.40;;;;;;;;;;5049380;28;20017;-72
2023/08/14 12:57:08;;;;;;;3.97;0.80;;;;;;;;;;5045818;28;20291;-72
2023/08/14 12:59:33;;;;;;;3.93;1.53;;;;;;;;;;5041874;28;20048;-73
2023/08/14 13:01:58;;;;;;;3.17;1.43;;;;;;;;;;5045223;28;20024;-73
2023/08/14 13:04:23;;;;;;;8.17;2.00;;;;;;;;;;5042942;28;20036;-73
2023/08/14 13:06:49;;;;;;;4.20;1.73;;;;;;;;;;5046917;28;20552;-73
2023/08/14 13:09:14;;;;;;;12.57;2.13;;;;;;;;;;5042283;28;20170;-73
2023/08/14 13:11:40;;;;;;;5.20;1.40;;;;;;;;;;5039110;28;20044;-72
2023/08/14 13:14:05;;;;;;;7.03;2.50;;;;;;;;;;5043382;28;20032;-73
2023/08/14 13:16:31;;;;;;;9.30;2.63;;;;;;;;;;5044643;28;20064;-73
2023/08/14 13:18:57;;;;;;;4.30;1.75;;;;;;;;;;5046685;28;20267;-73
2023/08/14 13:21:22;;;;;;;7.50;1.98;;;;;;;;;;5042256;28;20067;-73
2023/08/14 13:23:47;;;;;;;7.63;2.37;;;;;;;;;;5041032;28;20013;-73
2023/08/14 13:26:12;;;;;;;2.70;1.33;;;;;;;;;;5048995;28;20624;-73
2023/08/14 13:28:39;;;;;;;3.53;1.53;;;;;;;;;;5039560;28;20021;-73
2023/08/14 13:31:05;;;;;;;9.48;2.28;;;;;;;;;;5035331;28;20367;-73
2023/08/14 13:33:31;;;;;;;9.48;2.60;;;;;;;;;;5042343;28;20016;-73
2023/08/14 13:35:56;;;;;;;10.70;1.73;;;;;;;;;;5050261;28;20031;-73
2023/08/14 13:38:21;;;;;;;13.90;2.83;;;;;;;;;;5039092;28;20032;-73
2023/08/14 13:40:46;;;;;;;7.77;2.50;;;;;;;;;;5041857;28;20017;-73
2023/08/14 13:43:11;;;;;;;7.72;2.17;;;;;;;;;;5044907;28;20078;-73
2023/08/14 13:45:38;;;;;;;7.93;2.00;;;;;;;;;;5037313;28;20018;-73
2023/08/14 13:48:03;;;;;;;4.83;1.57;;;;;;;;;;5041954;28;20032;-73
2023/08/14 13:50:29;;;;;;;7.78;2.08;;;;;;;;;;5043050;28;20576;-73
2023/08/14 13:52:54;;;;;;;6.35;2.28;;;;;;;;;;5038980;28;20048;-73
2023/08/14 13:55:20;;;;;;;6.05;2.05;;;;;;;;;;5039544;28;20036;-73
2023/08/14 13:57:45;;;;;;;4.25;2.35;;;;;;;;;;5045344;28;20100;-73
2023/08/14 14:00:11;;;;;;;6.27;1.63;;;;;;;;;;5049752;28;20048;-73
2023/08/14 14:02:36;;;;;;;14.95;2.17;;;;;;;;;;5043771;28;20029;-73
2023/08/14 14:05:01;;;;;;;3.43;1.23;;;;;;;;;;5042286;28;20498;-73
2023/08/14 14:07:26;;;;;;;5.35;2.33;;;;;;;;;;5039795;28;20102;-73
2023/08/14 14:09:52;;;;;;;4.57;1.90;;;;;;;;;;5041747;28;20025;-73
2023/08/14 14:12:17;;;;;;;5.57;2.15;;;;;;;;;;5044168;28;20907;-73
2023/08/14 14:14:43;;;;;;;7.20;1.47;;;;;;;;;;5046745;28;20108;-73
2023/08/14 14:17:08;;;;;;;6.27;2.53;;;;;;;;;;5048153;28;20098;-73
2023/08/14 14:19:33;;;;;;;4.37;1.87;;;;;;;;;;5041670;28;20774;-73
2023/08/14 14:21:59;;;;;;;5.68;1.83;;;;;;;;;;5043593;28;20104;-73
2023/08/14 14:24:24;;;;;;;6.30;2.42;;;;;;;;;;5044857;28;20021;-73
2023/08/14 14:26:49;;;;;;;2.65;1.58;;;;;;;;;;5046823;28;20103;-73
2023/08/14 14:29:15;;;;;;;2.53;1.47;;;;;;;;;;5043065;28;20120;-73